Flight Track Log - Related Links

Times and Time Zones

All times are in EDT time to prevent confusion due to time zone crossing. See the DAL1117 flight status page for this flight to view local times or setup timezone preferences in your user account.

Time Position Orientation Groundspeed Altitude Reporting Facility
EDT Latitude Longitude Course Direction KTS MPH feet Rate Location/Type
Thu 09:41:50 PM 42.1911 -83.3550 270° West 167 192 1,200  Level Cleveland Center
Thu 09:43:14 PM 42.1353 -83.4308 225° Southwest 237 273 3,900 2,071 Climbing Cleveland Center
Thu 09:44:00 PM 42.3058 -83.7623 285° West  Level FlightAware Approximate
Thu 09:44:38 PM 42.1119 -83.5194 250° West 223 257 7,000  Level Cleveland Center
Thu 09:45:00 PM 42.3416 -83.8997 292° West  Level FlightAware Approximate
Thu 09:45:38 PM 42.1556 -83.6111 303° West 228 262 10,000  Level Cleveland Center
Thu 09:46:00 PM 42.3822 -84.0350 292° West  Level FlightAware Approximate
Thu 09:46:38 PM 42.1969 -83.7000 302° West 250 288 11,800  Level Cleveland Center
Thu 09:47:00 PM 42.4167 -84.1721 270° West  Level FlightAware Approximate
Thu 09:47:38 PM 42.2442 -83.8006 302° West 289 333 14,100  Level Cleveland Center
Thu 09:48:38 PM 42.2914 -83.9039 302° West 315 362 16,500 2,132 Climbing Cleveland Center
Thu 09:49:39 PM 42.3403 -84.0078 303° West 328 377 18,400 1,950 Climbing Cleveland Center
Thu 09:50:38 PM 42.3872 -84.1142 301° West 328 377 20,400 1,815 Climbing Cleveland Center
Thu 09:51:38 PM 42.4275 -84.2261 296° West 328 377 22,000 1,483 Climbing Cleveland Center
Thu 09:53:36 PM 42.4356 -84.4811 273° West 363 418 24,800 1,367 Climbing Chicago Center
Thu 09:54:38 PM 42.4386 -84.6208 272° West 371 427 26,100 1,171 Climbing Chicago Center
Thu 09:55:39 PM 42.4428 -84.7625 272° West 376 433 27,200 1,073 Climbing Chicago Center
Thu 09:56:41 PM 42.4458 -84.9078 272° West 385 443 28,300 1,065 Climbing Chicago Center
Thu 09:57:43 PM 42.4486 -85.0536 272° West 388 447 29,400 1,065 Climbing Chicago Center
Thu 09:58:45 PM 42.4514 -85.2283 271° West 388 447 30,500 1,122 Climbing Chicago Center
Thu 09:59:46 PM 42.4547 -85.3753 272° West 390 449 31,700 732 Climbing Chicago Center
Thu 10:00:48 PM 42.4569 -85.5183 271° West 382 440 32,000 145 Climbing Chicago Center
Thu 10:01:50 PM 42.4597 -85.6572 272° West 371 427 32,000 242 Level Chicago Center
Thu 10:02:52 PM 42.4625 -85.8006 272° West 377 434 32,500 780 Climbing Chicago Center
Thu 10:03:53 PM 42.4639 -85.9428 271° West 378 435 33,600 732 Climbing Chicago Center
Thu 10:04:55 PM 42.4653 -86.0825 271° West 372 428 34,000 194 Climbing Chicago Center
Thu 10:05:57 PM 42.4497 -86.2244 262° West 381 438 34,000  Level Chicago Center
Thu 10:06:58 PM 42.4325 -86.3647 261° West 377 434 34,000  Level Chicago Center
Thu 10:08:00 PM 42.4108 -86.5336 260° West 380 437 34,000  Level Chicago Center
Thu 10:09:01 PM 42.3939 -86.6753 261° West 381 438 34,000 49 Level Chicago Center
Thu 10:10:03 PM 42.3747 -86.8289 260° West 381 438 34,100  Climbing Chicago Center
Thu 10:11:05 PM 42.3561 -86.9681 260° West 380 437 34,000 -49 Descending Chicago Center
Thu 10:12:06 PM 42.3369 -87.1058 259° West 377 434 34,000  Level Chicago Center
Thu 10:13:08 PM 42.3186 -87.2467 260° West 384 442 34,000 49 Level Chicago Center
Thu 10:14:09 PM 42.2983 -87.3864 259° West 384 442 34,100  Climbing Chicago Center
Thu 10:15:11 PM 42.2794 -87.5267 260° West 384 442 34,000 -49 Descending Chicago Center
Thu 10:16:12 PM 42.2608 -87.6661 260° West 382 440 34,000  Level Chicago Center
Thu 10:17:14 PM 42.2375 -87.8350 259° West 385 443 34,000  Level Chicago Center
Thu 10:18:16 PM 42.2186 -87.9725 260° West 380 437 34,000  Level Chicago Center
Thu 10:19:17 PM 42.1931 -88.1094 256° West 380 437 34,000  Level Chicago Center
Thu 10:20:19 PM 42.1694 -88.2433 257° West 375 432 34,000  Level Chicago Center
Thu 10:21:20 PM 42.1450 -88.3800 256° West 376 433 34,000  Level Chicago Center
Thu 10:22:22 PM 42.1208 -88.5164 257° West 378 435 34,000  Level Chicago Center
Thu 10:23:23 PM 42.0914 -88.6808 256° West 379 436 34,000  Level Chicago Center
Thu 10:24:25 PM 42.0672 -88.8139 256° West 374 430 34,000  Level Chicago Center
Thu 10:25:26 PM 42.0422 -88.9472 256° West 372 428 34,000  Level Chicago Center
Thu 10:26:28 PM 42.0178 -89.0817 256° West 373 429 34,000  Level Chicago Center
Thu 10:27:29 PM 41.9931 -89.2164 256° West 375 432 34,000  Level Chicago Center
Thu 10:28:31 PM 41.9681 -89.3506 256° West 374 430 34,000  Level Chicago Center
Thu 10:29:32 PM 41.9392 -89.5064 256° West 364 419 34,000  Level Chicago Center
Thu 10:30:34 PM 41.9131 -89.6381 255° West 366 421 34,000  Level Chicago Center
Thu 10:31:35 PM 41.8883 -89.7700 256° West 368 423 34,000  Level Chicago Center
Thu 10:32:36 PM 41.8633 -89.9006 256° West 364 419 34,000  Level Chicago Center
Thu 10:33:38 PM 41.8369 -90.0461 256° West 364 419 34,000  Level Chicago Center
Thu 10:34:39 PM 41.8106 -90.1775 255° West 366 421 34,000  Level Chicago Center
Thu 10:35:41 PM 41.7844 -90.3122 255° West 371 427 34,000  Level Chicago Center
Thu 10:36:42 PM 41.7583 -90.4411 255° West 361 415 34,000  Level Chicago Center
Thu 10:37:44 PM 41.7228 -90.5669 249° West 368 423 34,000  Level Chicago Center
Thu 10:38:45 PM 41.6744 -90.6833 241° Southwest 369 425 34,000 246 Level Chicago Center
Thu 10:39:46 PM 41.6253 -90.8044 242° Southwest 372 428 34,500 634 Climbing Chicago Center
Thu 10:40:48 PM 41.5775 -90.9267 242° Southwest 374 430 35,300 732 Climbing Chicago Center
Thu 10:41:49 PM 41.5203 -91.0683 242° Southwest 366 421 36,000 344 Climbing Chicago Center
Thu 10:42:50 PM 41.4972 -91.1967 257° West 344 396 36,000  Level Chicago Center
Thu 10:43:51 PM 41.4861 -91.3267 264° West 351 404 36,000  Level Chicago Center
Thu 10:44:53 PM 41.4756 -91.4506 264° West 352 405 36,000  Level Chicago Center
Thu 10:45:54 PM 41.4639 -91.5800 263° West 354 407 36,000  Level Chicago Center
Thu 10:46:55 PM 41.4533 -91.7100 264° West 354 407 36,000  Level Chicago Center
Thu 10:47:56 PM 41.4431 -91.8400 264° West 355 409 36,000  Level Chicago Center
Thu 10:48:57 PM 41.4306 -91.9681 263° West 352 405 36,000  Level Chicago Center
Thu 10:49:59 PM 41.4164 -92.1203 263° West 349 402 36,000  Level Chicago Center
Thu 10:51:00 PM 41.4050 -92.2478 263° West 348 400 36,000  Level Chicago Center
Thu 10:52:01 PM 41.3936 -92.3750 263° West 348 400 36,000  Level Chicago Center
Thu 10:53:02 PM 41.3828 -92.4922 263° West 349 402 36,000  Level Chicago Center
Thu 10:54:03 PM 41.3703 -92.6189 263° West 350 403 36,000  Level Chicago Center
Thu 10:54:34 PM 41.3633 -92.6961 263° West 348 400 36,000  Level Minneapolis Center
Thu 10:55:36 PM 41.3506 -92.8247 263° West 351 404 36,000  Level Minneapolis Center
Thu 10:56:37 PM 41.3389 -92.9533 263° West 353 406 36,000  Level Minneapolis Center
Thu 10:57:39 PM 41.3228 -93.1028 262° West 347 399 36,000  Level Minneapolis Center
Thu 10:58:52 PM 41.3108 -93.2300 263° West 349 402 36,000  Level Minneapolis Center
Thu 10:59:56 PM 41.2956 -93.3825 262° West 350 403 36,000  Level Minneapolis Center
Thu 11:00:58 PM 41.2847 -93.4861 262° West 353 406 36,000  Level Minneapolis Center
Thu 11:01:59 PM 41.2700 -93.6367 263° West 349 402 36,000  Level Minneapolis Center
Thu 11:03:13 PM 41.2539 -93.7925 262° West 356 410 36,000  Level Minneapolis Center
Thu 11:04:15 PM 41.2367 -93.9475 262° West 357 411 36,000  Level Minneapolis Center
Thu 11:05:16 PM 41.2236 -94.0764 262° West 357 411 36,000  Level Minneapolis Center
Thu 11:06:18 PM 41.2075 -94.2214 262° West 357 411 36,000  Level Minneapolis Center
Thu 11:07:19 PM 41.1936 -94.3528 262° West 359 413 36,000  Level Minneapolis Center
Thu 11:08:33 PM 41.1792 -94.4842 262° West 359 413 36,000  Level Minneapolis Center
Thu 11:09:35 PM 41.1625 -94.6411 262° West 359 413 36,000  Level Minneapolis Center
Thu 11:10:36 PM 41.1461 -94.7728 261° West 359 413 36,000  Level Minneapolis Center
Thu 11:11:37 PM 41.1308 -94.9064 261° West 363 418 36,000  Level Minneapolis Center
Thu 11:12:39 PM 41.1156 -95.0369 261° West 361 415 36,000  Level Minneapolis Center
Thu 11:13:40 PM 41.1008 -95.1683 262° West 359 413 36,000  Level Minneapolis Center
Thu 11:14:42 PM 41.0853 -95.2994 261° West 359 413 36,000  Level Minneapolis Center
Thu 11:15:43 PM 41.0658 -95.4569 261° West 359 413 36,000  Level Minneapolis Center
Thu 11:16:44 PM 41.0492 -95.5919 261° West 366 421 36,000  Level Minneapolis Center
Thu 11:17:46 PM 41.0322 -95.7253 260° West 366 421 36,000  Level Minneapolis Center
Thu 11:18:47 PM 41.0156 -95.8611 261° West 369 425 36,000  Level Minneapolis Center
Thu 11:19:48 PM 40.9986 -95.9978 261° West 372 428 36,000 49 Level Minneapolis Center
Thu 11:20:50 PM 40.9814 -96.1333 260° West 371 427 36,100  Climbing Minneapolis Center
Thu 11:21:51 PM 40.9653 -96.2675 261° West 368 423 36,000 -49 Descending Minneapolis Center
Thu 11:22:52 PM 40.9478 -96.4011 260° West 369 425 36,000  Level Minneapolis Center
Thu 11:23:54 PM 40.9300 -96.5347 260° West 367 422 36,000  Level Minneapolis Center
Thu 11:24:55 PM 40.9131 -96.6708 261° West 371 427 36,000 49 Level Minneapolis Center
Thu 11:25:56 PM 40.8950 -96.8067 260° West 374 430 36,100  Climbing Minneapolis Center
Thu 11:26:57 PM 40.8764 -96.9397 260° West 371 427 36,000 -49 Descending Minneapolis Center
Thu 11:27:59 PM 40.8600 -97.0728 261° West 367 422 36,000  Level Minneapolis Center
Thu 11:29:00 PM 40.8381 -97.2269 259° West 360 414 36,000  Level Minneapolis Center
Thu 11:30:01 PM 40.8200 -97.3558 260° West 357 411 36,000  Level Minneapolis Center
Thu 11:31:02 PM 40.8042 -97.4747 260° West 359 413 36,000  Level Minneapolis Center
Thu 11:32:03 PM 40.7858 -97.6047 259° West 360 414 36,000  Level Minneapolis Center
Thu 11:33:05 PM 40.7678 -97.7378 260° West 364 419 36,000  Level Minneapolis Center
Thu 11:34:06 PM 40.7478 -97.8694 259° West 365 420 36,000  Level Minneapolis Center
Thu 11:35:07 PM 40.7303 -98.0028 260° West 367 422 36,000  Level Minneapolis Center
Thu 11:36:08 PM 40.7061 -98.1617 259° West 367 422 36,000  Level Minneapolis Center
Thu 11:37:09 PM 40.6864 -98.2950 259° West 368 423 36,000  Level Minneapolis Center
Thu 11:38:10 PM 40.6678 -98.4283 260° West 368 423 36,000  Level Minneapolis Center
Thu 11:39:11 PM 40.6475 -98.5614 259° West 368 423 36,000  Level Minneapolis Center
Thu 11:40:12 PM 40.6286 -98.6956 260° West 370 426 36,000  Level Minneapolis Center
Thu 11:41:13 PM 40.6078 -98.8294 258° West 371 427 36,000 49 Level Minneapolis Center
Thu 11:42:14 PM 40.5869 -98.9636 258° West 371 427 36,100  Climbing Minneapolis Center
Thu 11:43:16 PM 40.5675 -99.0956 259° West 368 423 36,000 -61 Descending Minneapolis Center
Thu 11:43:53 PM 40.5553 -99.1739 258° West 364 419 36,000  Level Denver Center
Thu 11:44:55 PM 40.5356 -99.3042 259° West 363 418 36,000  Level Denver Center
Thu 11:45:56 PM 40.5147 -99.4356 258° West 365 420 36,000  Level Denver Center
Thu 11:46:58 PM 40.4942 -99.5664 258° West 365 420 36,000  Level Denver Center
Thu 11:47:59 PM 40.4714 -99.6997 257° West 371 427 36,000  Level Denver Center
Thu 11:49:00 PM 40.4517 -99.8328 259° West 371 427 36,000  Level Denver Center
Thu 11:50:02 PM 40.4292 -99.9725 258° West 369 425 36,000  Level Denver Center
Thu 11:51:03 PM 40.4044 -100.1203 258° West 371 427 36,000  Level Denver Center
Thu 11:52:04 PM 40.3836 -100.2475 258° West 372 428 36,000  Level Denver Center
Thu 11:53:06 PM 40.3589 -100.3961 258° West 372 428 36,000  Level Denver Center
Thu 11:54:07 PM 40.3378 -100.5239 258° West 373 429 36,000  Level Denver Center
Thu 11:55:08 PM 40.3164 -100.6514 258° West 373 429 36,000  Level Denver Center
Thu 11:56:10 PM 40.2908 -100.7983 257° West 370 426 36,000  Level Denver Center
Thu 11:57:11 PM 40.2700 -100.9256 258° West 371 427 36,000  Level Denver Center
Thu 11:58:12 PM 40.2478 -101.0528 257° West 374 430 36,000  Level Denver Center
Thu 11:59:14 PM 40.2222 -101.2000 257° West 371 427 36,000  Level Denver Center
Fri 12:00:16 AM 40.2006 -101.3256 257° West 371 427 36,000  Level Denver Center
Fri 12:01:17 AM 40.1747 -101.4722 257° West 371 427 36,000  Level Denver Center
Fri 12:02:19 AM 40.1531 -101.5981 257° West 372 428 36,000  Level Denver Center
Fri 12:03:20 AM 40.1308 -101.7247 257° West 375 432 36,000  Level Denver Center
Fri 12:04:21 AM 40.1039 -101.8711 257° West 372 428 36,000  Level Denver Center
Fri 12:05:23 AM 40.0811 -101.9972 257° West 371 427 36,000  Level Denver Center
Fri 12:06:24 AM 40.0547 -102.1444 257° West 373 429 36,000  Level Denver Center
Fri 12:07:37 AM 40.0306 -102.2708 256° West 374 430 36,000  Level Denver Center
Fri 12:08:39 AM 39.9997 -102.4428 257° West 382 440 36,000  Level Denver Center
Fri 12:09:40 AM 39.9753 -102.5714 256° West 382 440 36,000  Level Denver Center
Fri 12:10:41 AM 39.9508 -102.7031 256° West 380 437 36,000  Level Denver Center
Fri 12:11:43 AM 39.9256 -102.8372 256° West 378 435 36,000  Level Denver Center
Fri 12:12:56 AM 39.8922 -103.0167 256° West 379 436 36,000  Level Denver Center
Fri 12:13:58 AM 39.8647 -103.1517 255° West 380 437 36,000  Level Denver Center
Fri 12:14:59 AM 39.8386 -103.2872 256° West 384 442 36,000  Level Denver Center
Fri 12:16:00 AM 39.8125 -103.4242 256° West 387 445 36,000 49 Level Denver Center
Fri 12:17:02 AM 39.7867 -103.5600 256° West 384 442 36,100  Climbing Denver Center
Fri 12:18:03 AM 39.7594 -103.6950 255° West 384 442 36,000 -49 Descending Denver Center
Fri 12:19:04 AM 39.7333 -103.8297 256° West 380 437 36,000  Level Denver Center
Fri 12:20:06 AM 39.7075 -103.9639 256° West 379 436 36,000  Level Denver Center
Fri 12:21:07 AM 39.6811 -104.0947 255° West 370 426 36,000  Level Denver Center
Fri 12:22:08 AM 39.6539 -104.2292 255° West 379 436 36,000  Level Denver Center
Fri 12:23:09 AM 39.6267 -104.3611 255° West 377 434 36,000  Level Denver Center
Fri 12:24:11 AM 39.5989 -104.4967 255° West 387 445 36,000 48 Level Denver Center
Fri 12:25:14 AM 39.5681 -104.6453 255° West 393 452 36,100 49 Climbing Denver Center
Fri 12:26:13 AM 39.5383 -104.7814 254° West 395 455 36,100 -50 Level Denver Center
Fri 12:27:14 AM 39.5106 -104.9169 255° West 386 444 36,000 -49 Descending Denver Center
Fri 12:28:15 AM 39.4825 -105.0528 255° West 386 444 36,000  Level Denver Center
Fri 12:29:17 AM 39.4539 -105.1872 255° West 381 438 36,000  Level Denver Center
Fri 12:30:18 AM 39.4253 -105.3217 255° West 383 441 36,000  Level Denver Center
Fri 12:31:19 AM 39.3958 -105.4589 255° West 391 450 36,000  Level Denver Center
Fri 12:32:20 AM 39.3669 -105.5942 255° West 387 445 36,000  Level Denver Center
Fri 12:33:21 AM 39.3364 -105.7325 254° West 396 456 36,000  Level Denver Center
Fri 12:34:22 AM 39.3067 -105.8697 254° West 394 453 36,000  Level Denver Center
Fri 12:35:23 AM 39.2764 -106.0072 254° West 396 456 36,000  Level Denver Center
Fri 12:36:24 AM 39.2472 -106.1450 255° West 394 453 36,000  Level Denver Center
Fri 12:37:26 AM 39.2142 -106.2936 254° West 393 452 36,000  Level Denver Center
Fri 12:38:27 AM 39.1844 -106.4233 254° West 394 453 36,000  Level Denver Center
Fri 12:39:28 AM 39.1503 -106.5775 254° West 400 460 36,000  Level Denver Center
Fri 12:40:29 AM 39.1186 -106.7083 253° West 399 459 36,000  Level Denver Center
Fri 12:41:30 AM 39.0892 -106.8408 254° West 402 463 36,000  Level Denver Center
Fri 12:42:31 AM 39.0544 -106.9953 254° West 402 463 36,000  Level Denver Center
Fri 12:43:32 AM 39.0236 -107.1261 253° West 400 460 36,000  Level Denver Center
Fri 12:44:33 AM 38.9922 -107.2597 253° West 406 467 36,000  Level Denver Center
Fri 12:45:33 AM 38.9675 -107.3697 254° West 404 465 36,000  Level Denver Center
Fri 12:46:34 AM 38.9247 -107.5469 253° West 406 467 36,000  Level Denver Center
Fri 12:47:35 AM 38.8942 -107.6794 254° West 405 466 36,000  Level Denver Center
Fri 12:48:48 AM 38.8575 -107.8333 253° West 404 465 36,000  Level Denver Center
Fri 12:49:49 AM 38.8211 -107.9872 253° West 402 463 36,000  Level Denver Center
Fri 12:50:50 AM 38.7842 -108.1397 253° West 401 461 36,000  Level Denver Center
Fri 12:51:51 AM 38.7589 -108.2467 253° West 395 455 36,000  Level Denver Center
Fri 12:52:51 AM 38.7225 -108.3986 253° West 399 459 36,000  Level Denver Center
Fri 12:53:52 AM 38.6847 -108.5500 252° West 399 459 36,000  Level Denver Center
Fri 12:54:53 AM 38.6525 -108.6814 253° West 405 466 36,000  Level Denver Center
Fri 12:56:06 AM 38.6200 -108.8108 252° West 400 460 36,000  Level Denver Center
Fri 12:57:07 AM 38.5775 -108.9808 252° West 389 448 36,000  Level Denver Center
Fri 12:58:08 AM 38.5453 -109.1086 252° West 393 452 36,000  Level Denver Center
Fri 12:59:08 AM 38.5131 -109.2364 252° West 392 451 36,000  Level Denver Center
Fri 01:00:09 AM 38.4756 -109.3850 252° West 391 450 36,000  Level Denver Center
Fri 01:01:10 AM 38.4439 -109.5114 252° West 390 449 36,000  Level Denver Center
Fri 01:02:10 AM 38.4108 -109.6378 252° West 392 451 36,000  Level Denver Center
Fri 01:03:11 AM 38.3725 -109.7856 252° West 391 450 36,000  Level Denver Center
Fri 01:04:12 AM 38.3458 -109.8931 252° West 394 453 36,000  Level Denver Center
Fri 01:05:12 AM 38.3061 -110.0406 251° West 395 455 36,000  Level Denver Center
Fri 01:06:13 AM 38.2678 -110.1875 252° West 394 453 36,000  Level Denver Center
Fri 01:07:14 AM 38.2347 -110.3153 252° West 395 455 36,000  Level Denver Center
Fri 01:08:14 AM 38.2008 -110.4422 251° West 394 453 36,000  Level Denver Center
Fri 01:09:15 AM 38.1617 -110.5903 251° West 394 453 36,000  Level Denver Center
Fri 01:10:15 AM 38.1272 -110.7161 251° West 393 452 36,000  Level Denver Center
Fri 01:10:31 AM 38.1214 -110.7369 250° West 393 452 36,000  Level Salt Lake Center
Fri 01:11:16 AM 38.0942 -110.8419 252° West 393 452 36,000  Level Denver Center
Fri 01:12:16 AM 38.0461 -110.9669 244° Southwest 393 452 36,000  Level Denver Center
Fri 01:13:17 AM 37.9903 -111.0892 240° Southwest 399 459 36,000  Level Denver Center
Fri 01:14:17 AM 37.9353 -111.2103 240° Southwest 399 459 36,000  Level Denver Center
Fri 01:14:34 AM 37.9131 -111.2581 239° Southwest 398 458 36,000 -538 Level Salt Lake Center
Fri 01:15:35 AM 37.8578 -111.3794 240° Southwest 398 458 35,300 -787 Descending Salt Lake Center
Fri 01:16:36 AM 37.8053 -111.5008 241° Southwest 396 456 34,400 -992 Descending Salt Lake Center
Fri 01:17:36 AM 37.7481 -111.6236 240° Southwest 403 464 33,300 -992 Descending Salt Lake Center
Fri 01:18:37 AM 37.6897 -111.7464 239° Southwest 407 468 32,400 -639 Descending Salt Lake Center
Fri 01:19:38 AM 37.6314 -111.8728 240° Southwest 416 479 32,000 -197 Descending Salt Lake Center
Fri 01:20:39 AM 37.5742 -111.9983 240° Southwest 412 474 32,000  Level Salt Lake Center
Fri 01:21:39 AM 37.5164 -112.1228 240° Southwest 410 472 32,000 -197 Level Salt Lake Center
Fri 01:22:41 AM 37.4567 -112.2494 239° Southwest 418 481 31,600 -639 Descending Los Angeles Center
Fri 01:23:41 AM 37.3978 -112.3750 239° Southwest 416 479 30,700 -942 Descending Salt Lake Center
Fri 01:24:42 AM 37.3372 -112.5039 239° Southwest 422 486 29,700 -992 Descending Salt Lake Center
Fri 01:25:42 AM 37.2758 -112.6342 239° Southwest 428 493 28,700 -992 Descending Salt Lake Center
Fri 01:26:43 AM 37.2156 -112.7608 239° Southwest 423 487 27,700 -984 Descending Salt Lake Center
Fri 01:27:44 AM 37.1558 -112.8856 239° Southwest 418 481 26,700 -960 Descending Salt Lake Center
Fri 01:28:48 AM 37.0986 -113.0050 239° Southwest 403 464 25,700 -905 Descending Los Angeles Center
Fri 01:29:50 AM 37.0419 -113.1250 239° Southwest 400 460 24,800 -1,024 Descending Los Angeles Center
Fri 01:30:51 AM 36.9739 -113.2661 239° Southwest 396 456 23,600 -1,082 Descending Los Angeles Center
Fri 01:31:52 AM 36.9175 -113.3833 239° Southwest 394 453 22,600 -1,131 Descending Los Angeles Center
Fri 01:32:53 AM 36.8608 -113.4983 238° Southwest 390 449 21,300 -1,268 Descending Los Angeles Center
Fri 01:33:55 AM 36.8069 -113.6122 239° Southwest 385 443 20,000 -1,220 Descending Los Angeles Center
Fri 01:34:56 AM 36.7522 -113.7222 238° Southwest 378 435 18,800 -1,230 Descending Los Angeles Center
Fri 01:35:57 AM 36.6997 -113.8311 239° Southwest 371 427 17,500 -1,230 Descending Los Angeles Center
Fri 01:36:58 AM 36.6475 -113.9350 238° Southwest 360 414 16,300 -1,122 Descending Los Angeles Center
Fri 01:38:00 AM 36.5967 -114.0400 239° Southwest 357 411 15,200 -1,024 Descending Los Angeles Center
Fri 01:39:01 AM 36.5486 -114.1425 240° Southwest 347 399 14,200 -1,033 Descending Los Angeles Center
Fri 01:40:02 AM 36.4992 -114.2511 241° Southwest 344 396 13,100 -934 Descending Los Angeles Center
Fri 01:41:03 AM 36.4511 -114.3522 239° Southwest 341 392 12,300 -541 Descending Los Angeles Center
Fri 01:42:04 AM 36.4103 -114.4431 241° Southwest 311 358 12,000 -220 Descending Los Angeles Center
Fri 01:42:25 AM 36.3781 -114.4775 221° Southwest 306 352 12,000  Level Los Angeles Center
Fri 01:43:06 AM 36.3356 -114.4856 189° South 311 358 12,000 -941 Level Los Angeles Center
Fri 01:44:07 AM 36.2336 -114.5089 190° South 309 356 10,400 -1,556 Descending Los Angeles Center
Fri 01:44:27 AM 36.2072 -114.5167 193° South 306 352 9,900 -1,574 Descending Los Angeles Center
Fri 01:45:08 AM 36.1519 -114.5269 189° South 301 346 8,800 -1,475 Descending Los Angeles Center
Fri 01:45:28 AM 36.1267 -114.5333 192° South 295 339 8,400 -787 Descending Los Angeles Center
Fri 01:46:09 AM 36.0861 -114.5625 210° Southwest 280 322 8,000 -235 Descending Los Angeles Center
Fri 01:47:10 AM 36.0789 -114.6386 263° West 233 268 8,000  Level Los Angeles Center
Fri 01:48:11 AM 36.0750 -114.7167 266° West 227 261 8,000 -444 Level Los Angeles Center
Fri 01:49:25 AM 36.0744 -114.8147 270° West 228 262 7,000 -976 Descending Los Angeles Center
Fri 01:50:14 AM 36.0742 -114.8733 270° West 227 261 6,000 -1,200 Descending Los Angeles Center
Fri 01:51:15 AM 36.0736 -114.9478 269° West 223 257 4,800 -1,131 Descending Los Angeles Center
Fri 01:52:16 AM 36.0736 -115.0150 270° West 212 244 3,700 -1,082 Descending Los Angeles Center

Login

Don't have an account? Register now (free) for customized features, flight alerts, and more!